sensor_id;sensor_type;location;lat;lon;timestamp;P1;durP1;ratioP1;P2;durP2;ratioP2
18893;SDS011;9579;49.488;8.226;2022-07-04T05:01:40;2.08;;;1.60;;
18893;SDS011;9579;49.488;8.226;2022-07-04T05:04:27;2.85;;;1.80;;
18893;SDS011;9579;49.488;8.226;2022-07-04T05:07:15;2.50;;;1.70;;
18893;SDS011;9579;49.488;8.226;2022-07-04T05:10:02;3.30;;;2.00;;
18893;SDS011;9579;49.488;8.226;2022-07-04T05:12:50;3.25;;;1.77;;
18893;SDS011;9579;49.488;8.226;2022-07-04T05:15:37;3.30;;;1.80;;
18893;SDS011;9579;49.488;8.226;2022-07-04T05:18:26;2.65;;;1.60;;
18893;SDS011;9579;49.488;8.226;2022-07-04T05:21:13;2.65;;;1.70;;
18893;SDS011;9579;49.488;8.226;2022-07-04T05:24:00;3.65;;;1.50;;
18893;SDS011;9579;49.488;8.226;2022-07-04T05:26:47;2.35;;;1.70;;
18893;SDS011;9579;49.488;8.226;2022-07-04T05:29:34;2.25;;;1.40;;
18893;SDS011;9579;49.488;8.226;2022-07-04T05:32:21;2.13;;;1.50;;
18893;SDS011;9579;49.488;8.226;2022-07-04T05:35:09;2.90;;;1.77;;
18893;SDS011;9579;49.488;8.226;2022-07-04T05:37:56;2.97;;;2.03;;
18893;SDS011;9579;49.488;8.226;2022-07-04T05:40:44;1.60;;;1.50;;
18893;SDS011;9579;49.488;8.226;2022-07-04T05:43:31;3.92;;;1.80;;
18893;SDS011;9579;49.488;8.226;2022-07-04T05:46:18;2.15;;;1.60;;
18893;SDS011;9579;49.488;8.226;2022-07-04T05:49:05;1.70;;;1.52;;
18893;SDS011;9579;49.488;8.226;2022-07-04T05:51:53;2.72;;;1.70;;
18893;SDS011;9579;49.488;8.226;2022-07-04T05:54:40;1.63;;;1.52;;
18893;SDS011;9579;49.488;8.226;2022-07-04T05:57:27;1.73;;;1.48;;
18893;SDS011;9579;49.488;8.226;2022-07-04T06:00:15;1.70;;;1.60;;
18893;SDS011;9579;49.488;8.226;2022-07-04T06:03:02;1.75;;;1.65;;
18893;SDS011;9579;49.488;8.226;2022-07-04T06:05:49;1.65;;;1.50;;
18893;SDS011;9579;49.488;8.226;2022-07-04T06:08:38;2.88;;;1.67;;
18893;SDS011;9579;49.488;8.226;2022-07-04T06:11:25;3.95;;;1.70;;
18893;SDS011;9579;49.488;8.226;2022-07-04T06:14:12;1.70;;;1.60;;
18893;SDS011;9579;49.488;8.226;2022-07-04T06:17:00;3.63;;;1.70;;
18893;SDS011;9579;49.488;8.226;2022-07-04T06:19:48;3.38;;;1.65;;
18893;SDS011;9579;49.488;8.226;2022-07-04T06:22:38;2.08;;;1.45;;
18893;SDS011;9579;49.488;8.226;2022-07-04T06:25:28;2.55;;;1.67;;
18893;SDS011;9579;49.488;8.226;2022-07-04T06:28:15;2.92;;;1.80;;
18893;SDS011;9579;49.488;8.226;2022-07-04T06:31:02;2.60;;;1.98;;
18893;SDS011;9579;49.488;8.226;2022-07-04T06:33:49;2.60;;;1.60;;
18893;SDS011;9579;49.488;8.226;2022-07-04T06:36:54;2.22;;;1.50;;
18893;SDS011;9579;49.488;8.226;2022-07-04T06:39:41;2.47;;;1.95;;
18893;SDS011;9579;49.488;8.226;2022-07-04T06:42:29;3.33;;;1.83;;
18893;SDS011;9579;49.488;8.226;2022-07-04T06:45:17;3.28;;;1.90;;
18893;SDS011;9579;49.488;8.226;2022-07-04T06:48:04;2.17;;;1.60;;
18893;SDS011;9579;49.488;8.226;2022-07-04T06:50:52;2.17;;;1.80;;
18893;SDS011;9579;49.488;8.226;2022-07-04T06:53:39;1.85;;;1.63;;
18893;SDS011;9579;49.488;8.226;2022-07-04T06:56:27;1.92;;;1.50;;
18893;SDS011;9579;49.488;8.226;2022-07-04T06:59:15;1.80;;;1.70;;
18893;SDS011;9579;49.488;8.226;2022-07-04T07:02:02;2.25;;;1.88;;
18893;SDS011;9579;49.488;8.226;2022-07-04T07:04:49;1.73;;;1.55;;
18893;SDS011;9579;49.488;8.226;2022-07-04T07:07:36;1.83;;;1.60;;
18893;SDS011;9579;49.488;8.226;2022-07-04T07:10:24;2.13;;;1.60;;
18893;SDS011;9579;49.488;8.226;2022-07-04T07:13:11;1.80;;;1.48;;
18893;SDS011;9579;49.488;8.226;2022-07-04T07:16:00;2.13;;;1.50;;
18893;SDS011;9579;49.488;8.226;2022-07-04T07:18:47;1.85;;;1.42;;
18893;SDS011;9579;49.488;8.226;2022-07-04T07:21:35;1.55;;;1.45;;
18893;SDS011;9579;49.488;8.226;2022-07-04T07:24:22;2.45;;;1.50;;
18893;SDS011;9579;49.488;8.226;2022-07-04T07:27:11;1.63;;;1.40;;
18893;SDS011;9579;49.488;8.226;2022-07-04T07:29:58;1.65;;;1.48;;
18893;SDS011;9579;49.488;8.226;2022-07-04T07:32:47;2.47;;;1.40;;
18893;SDS011;9579;49.488;8.226;2022-07-04T07:35:34;3.20;;;1.60;;
18893;SDS011;9579;49.488;8.226;2022-07-04T07:38:21;1.63;;;1.40;;
18893;SDS011;9579;49.488;8.226;2022-07-04T07:41:08;2.42;;;1.55;;
18893;SDS011;9579;49.488;8.226;2022-07-04T07:43:55;1.65;;;1.55;;
18893;SDS011;9579;49.488;8.226;2022-07-04T07:46:42;2.42;;;1.50;;
18893;SDS011;9579;49.488;8.226;2022-07-04T07:49:31;2.60;;;1.60;;
18893;SDS011;9579;49.488;8.226;2022-07-04T07:52:18;2.75;;;1.52;;
18893;SDS011;9579;49.488;8.226;2022-07-04T07:55:05;1.77;;;1.60;;
18893;SDS011;9579;49.488;8.226;2022-07-04T07:57:53;2.00;;;1.50;;
18893;SDS011;9579;49.488;8.226;2022-07-04T08:00:40;2.95;;;1.40;;
18893;SDS011;9579;49.488;8.226;2022-07-04T08:03:27;2.05;;;1.38;;
18893;SDS011;9579;49.488;8.226;2022-07-04T08:06:33;2.03;;;1.38;;
18893;SDS011;9579;49.488;8.226;2022-07-04T08:09:20;1.98;;;1.55;;
18893;SDS011;9579;49.488;8.226;2022-07-04T08:12:08;1.52;;;1.38;;
18893;SDS011;9579;49.488;8.226;2022-07-04T08:14:55;2.72;;;1.60;;
18893;SDS011;9579;49.488;8.226;2022-07-04T08:17:42;3.22;;;1.60;;
18893;SDS011;9579;49.488;8.226;2022-07-04T08:20:29;1.42;;;1.33;;
18893;SDS011;9579;49.488;8.226;2022-07-04T08:23:18;3.38;;;1.63;;
18893;SDS011;9579;49.488;8.226;2022-07-04T08:26:05;1.58;;;1.48;;
18893;SDS011;9579;49.488;8.226;2022-07-04T08:28:52;3.17;;;1.52;;
18893;SDS011;9579;49.488;8.226;2022-07-04T08:31:42;1.42;;;1.33;;
18893;SDS011;9579;49.488;8.226;2022-07-04T08:34:29;2.35;;;1.70;;
18893;SDS011;9579;49.488;8.226;2022-07-04T08:37:16;2.22;;;1.52;;
18893;SDS011;9579;49.488;8.226;2022-07-04T08:40:05;2.55;;;1.55;;
18893;SDS011;9579;49.488;8.226;2022-07-04T08:42:53;1.45;;;1.33;;
18893;SDS011;9579;49.488;8.226;2022-07-04T08:45:41;1.88;;;1.33;;
18893;SDS011;9579;49.488;8.226;2022-07-04T08:48:30;2.65;;;1.50;;
18893;SDS011;9579;49.488;8.226;2022-07-04T08:51:21;3.50;;;1.52;;
18893;SDS011;9579;49.488;8.226;2022-07-04T08:54:17;1.60;;;1.40;;
18893;SDS011;9579;49.488;8.226;2022-07-04T08:57:24;2.45;;;1.45;;
18893;SDS011;9579;49.488;8.226;2022-07-04T09:00:29;2.58;;;1.50;;
18893;SDS011;9579;49.488;8.226;2022-07-04T09:03:16;2.03;;;1.55;;
18893;SDS011;9579;49.488;8.226;2022-07-04T09:06:05;1.63;;;1.40;;
18893;SDS011;9579;49.488;8.226;2022-07-04T09:08:52;2.85;;;1.60;;
18893;SDS011;9579;49.488;8.226;2022-07-04T09:11:40;1.75;;;1.27;;
18893;SDS011;9579;49.488;8.226;2022-07-04T09:14:28;2.33;;;1.50;;
18893;SDS011;9579;49.488;8.226;2022-07-04T09:17:15;1.55;;;1.30;;
18893;SDS011;9579;49.488;8.226;2022-07-04T09:20:12;1.30;;;1.20;;
18893;SDS011;9579;49.488;8.226;2022-07-04T09:23:02;1.40;;;1.30;;
18893;SDS011;9579;49.488;8.226;2022-07-04T09:26:13;2.85;;;1.60;;
18893;SDS011;9579;49.488;8.226;2022-07-04T09:29:01;3.10;;;1.48;;
18893;SDS011;9579;49.488;8.226;2022-07-04T09:31:50;2.78;;;1.45;;
18893;SDS011;9579;49.488;8.226;2022-07-04T09:34:37;2.05;;;1.40;;
18893;SDS011;9579;49.488;8.226;2022-07-04T09:37:41;1.85;;;1.40;;
18893;SDS011;9579;49.488;8.226;2022-07-04T09:40:31;2.28;;;1.42;;
18893;SDS011;9579;49.488;8.226;2022-07-04T09:43:19;2.15;;;1.52;;
18893;SDS011;9579;49.488;8.226;2022-07-04T09:46:06;2.20;;;1.52;;
18893;SDS011;9579;49.488;8.226;2022-07-04T09:48:55;3.40;;;1.42;;
18893;SDS011;9579;49.488;8.226;2022-07-04T09:51:42;3.25;;;1.60;;
18893;SDS011;9579;49.488;8.226;2022-07-04T09:54:31;1.73;;;1.50;;
18893;SDS011;9579;49.488;8.226;2022-07-04T09:57:21;2.45;;;1.50;;
18893;SDS011;9579;49.488;8.226;2022-07-04T10:00:18;2.42;;;1.20;;
18893;SDS011;9579;49.488;8.226;2022-07-04T10:03:16;2.53;;;1.40;;
18893;SDS011;9579;49.488;8.226;2022-07-04T10:06:08;1.98;;;1.40;;
18893;SDS011;9579;49.488;8.226;2022-07-04T10:09:04;2.88;;;1.50;;
18893;SDS011;9579;49.488;8.226;2022-07-04T10:11:54;1.80;;;1.20;;
18893;SDS011;9579;49.488;8.226;2022-07-04T10:14:41;1.67;;;1.30;;
18893;SDS011;9579;49.488;8.226;2022-07-04T10:17:28;2.00;;;1.38;;
18893;SDS011;9579;49.488;8.226;2022-07-04T10:20:15;1.70;;;1.30;;
18893;SDS011;9579;49.488;8.226;2022-07-04T10:23:03;2.03;;;1.40;;
18893;SDS011;9579;49.488;8.226;2022-07-04T10:25:52;2.80;;;1.60;;
18893;SDS011;9579;49.488;8.226;2022-07-04T10:28:39;2.53;;;1.50;;
18893;SDS011;9579;49.488;8.226;2022-07-04T10:31:28;1.33;;;1.23;;
18893;SDS011;9579;49.488;8.226;2022-07-04T10:34:17;2.40;;;1.50;;
18893;SDS011;9579;49.488;8.226;2022-07-04T10:37:04;2.50;;;1.30;;
18893;SDS011;9579;49.488;8.226;2022-07-04T10:39:53;2.70;;;1.33;;
18893;SDS011;9579;49.488;8.226;2022-07-04T10:42:40;2.58;;;1.33;;
18893;SDS011;9579;49.488;8.226;2022-07-04T10:45:31;1.50;;;1.40;;
18893;SDS011;9579;49.488;8.226;2022-07-04T10:48:19;1.63;;;1.30;;
18893;SDS011;9579;49.488;8.226;2022-07-04T10:51:07;2.30;;;1.40;;
18893;SDS011;9579;49.488;8.226;2022-07-04T10:53:58;1.67;;;1.33;;
18893;SDS011;9579;49.488;8.226;2022-07-04T10:56:49;1.45;;;1.35;;
18893;SDS011;9579;49.488;8.226;2022-07-04T10:59:37;1.75;;;1.50;;
18893;SDS011;9579;49.488;8.226;2022-07-04T11:02:29;2.22;;;1.30;;
18893;SDS011;9579;49.488;8.226;2022-07-04T11:05:17;1.80;;;1.30;;
18893;SDS011;9579;49.488;8.226;2022-07-04T11:08:17;1.30;;;1.20;;
18893;SDS011;9579;49.488;8.226;2022-07-04T11:11:04;1.85;;;1.33;;
18893;SDS011;9579;49.488;8.226;2022-07-04T11:17:26;1.85;;;1.40;;
18893;SDS011;9579;49.488;8.226;2022-07-04T11:20:18;2.75;;;1.33;;
18893;SDS011;9579;49.488;8.226;2022-07-04T11:23:06;1.48;;;1.30;;
18893;SDS011;9579;49.488;8.226;2022-07-04T11:25:53;2.47;;;1.30;;
18893;SDS011;9579;49.488;8.226;2022-07-04T11:28:42;2.30;;;1.40;;
18893;SDS011;9579;49.488;8.226;2022-07-04T11:31:35;1.65;;;1.40;;
18893;SDS011;9579;49.488;8.226;2022-07-04T11:34:33;1.65;;;1.30;;
18893;SDS011;9579;49.488;8.226;2022-07-04T11:37:21;1.90;;;1.40;;
18893;SDS011;9579;49.488;8.226;2022-07-04T11:40:08;1.58;;;1.38;;
18893;SDS011;9579;49.488;8.226;2022-07-04T11:43:13;3.65;;;1.40;;
18893;SDS011;9579;49.488;8.226;2022-07-04T11:46:18;2.17;;;1.40;;
18893;SDS011;9579;49.488;8.226;2022-07-04T11:49:08;3.17;;;1.45;;
18893;SDS011;9579;49.488;8.226;2022-07-04T11:51:57;3.42;;;1.45;;
18893;SDS011;9579;49.488;8.226;2022-07-04T11:54:45;3.28;;;1.40;;
18893;SDS011;9579;49.488;8.226;2022-07-04T11:57:33;1.63;;;1.30;;
18893;SDS011;9579;49.488;8.226;2022-07-04T12:00:25;1.63;;;1.30;;
18893;SDS011;9579;49.488;8.226;2022-07-04T12:03:13;2.72;;;1.40;;
18893;SDS011;9579;49.488;8.226;2022-07-04T12:06:00;2.58;;;1.52;;
18893;SDS011;9579;49.488;8.226;2022-07-04T12:08:49;2.67;;;1.40;;
18893;SDS011;9579;49.488;8.226;2022-07-04T12:11:51;1.98;;;1.65;;
18893;SDS011;9579;49.488;8.226;2022-07-04T12:14:55;2.28;;;1.48;;
18893;SDS011;9579;49.488;8.226;2022-07-04T12:17:44;1.52;;;1.42;;
18893;SDS011;9579;49.488;8.226;2022-07-04T12:20:31;3.05;;;1.40;;
18893;SDS011;9579;49.488;8.226;2022-07-04T12:23:18;2.17;;;1.40;;
18893;SDS011;9579;49.488;8.226;2022-07-04T12:26:08;1.40;;;1.30;;
18893;SDS011;9579;49.488;8.226;2022-07-04T12:28:56;1.83;;;1.20;;
18893;SDS011;9579;49.488;8.226;2022-07-04T12:31:43;1.58;;;1.40;;
18893;SDS011;9579;49.488;8.226;2022-07-04T12:34:31;2.97;;;1.55;;
18893;SDS011;9579;49.488;8.226;2022-07-04T12:37:18;1.48;;;1.38;;
18893;SDS011;9579;49.488;8.226;2022-07-04T12:40:08;1.77;;;1.50;;
18893;SDS011;9579;49.488;8.226;2022-07-04T12:42:57;4.25;;;1.58;;
18893;SDS011;9579;49.488;8.226;2022-07-04T12:45:46;1.30;;;1.20;;
18893;SDS011;9579;49.488;8.226;2022-07-04T12:48:34;3.08;;;1.60;;
18893;SDS011;9579;49.488;8.226;2022-07-04T12:51:22;1.30;;;1.20;;
18893;SDS011;9579;49.488;8.226;2022-07-04T12:57:12;1.50;;;1.40;;
18893;SDS011;9579;49.488;8.226;2022-07-04T13:00:03;1.45;;;1.30;;
18893;SDS011;9579;49.488;8.226;2022-07-04T13:02:51;1.88;;;1.38;;
18893;SDS011;9579;49.488;8.226;2022-07-04T13:05:39;1.30;;;1.20;;
18893;SDS011;9579;49.488;8.226;2022-07-04T13:08:26;2.50;;;1.50;;
18893;SDS011;9579;49.488;8.226;2022-07-04T13:11:13;4.13;;;1.45;;
18893;SDS011;9579;49.488;8.226;2022-07-04T13:14:18;1.85;;;1.40;;
18893;SDS011;9579;49.488;8.226;2022-07-04T13:17:06;1.83;;;1.40;;
18893;SDS011;9579;49.488;8.226;2022-07-04T13:19:53;2.90;;;1.30;;
18893;SDS011;9579;49.488;8.226;2022-07-04T13:22:41;3.15;;;1.60;;
18893;SDS011;9579;49.488;8.226;2022-07-04T13:25:28;1.33;;;1.23;;
18893;SDS011;9579;49.488;8.226;2022-07-04T13:28:15;1.60;;;1.30;;
18893;SDS011;9579;49.488;8.226;2022-07-04T13:31:03;1.40;;;1.30;;
18893;SDS011;9579;49.488;8.226;2022-07-04T13:33:53;1.40;;;1.30;;
18893;SDS011;9579;49.488;8.226;2022-07-04T13:36:40;1.55;;;1.33;;
18893;SDS011;9579;49.488;8.226;2022-07-04T13:39:27;2.03;;;1.40;;
18893;SDS011;9579;49.488;8.226;2022-07-04T13:42:14;1.50;;;1.40;;
18893;SDS011;9579;49.488;8.226;2022-07-04T13:45:21;1.80;;;1.48;;
18893;SDS011;9579;49.488;8.226;2022-07-04T13:48:09;1.30;;;1.20;;
18893;SDS011;9579;49.488;8.226;2022-07-04T13:50:58;1.33;;;1.23;;
18893;SDS011;9579;49.488;8.226;2022-07-04T13:53:45;1.42;;;1.20;;
18893;SDS011;9579;49.488;8.226;2022-07-04T13:56:32;1.63;;;1.20;;
18893;SDS011;9579;49.488;8.226;2022-07-04T13:59:19;1.40;;;1.30;;
18893;SDS011;9579;49.488;8.226;2022-07-04T14:02:07;2.15;;;1.50;;
18893;SDS011;9579;49.488;8.226;2022-07-04T14:04:54;1.52;;;1.38;;
18893;SDS011;9579;49.488;8.226;2022-07-04T14:07:42;1.90;;;1.30;;
18893;SDS011;9579;49.488;8.226;2022-07-04T14:10:29;2.15;;;1.20;;
18893;SDS011;9579;49.488;8.226;2022-07-04T14:13:17;1.33;;;1.23;;
18893;SDS011;9579;49.488;8.226;2022-07-04T14:16:04;1.85;;;1.30;;
18893;SDS011;9579;49.488;8.226;2022-07-04T14:18:51;1.40;;;1.30;;
18893;SDS011;9579;49.488;8.226;2022-07-04T14:21:41;1.50;;;1.40;;
18893;SDS011;9579;49.488;8.226;2022-07-04T14:27:21;1.40;;;1.30;;
18893;SDS011;9579;49.488;8.226;2022-07-04T14:30:08;1.60;;;1.40;;
18893;SDS011;9579;49.488;8.226;2022-07-04T14:32:56;1.38;;;1.27;;
18893;SDS011;9579;49.488;8.226;2022-07-04T14:35:43;1.85;;;1.55;;
18893;SDS011;9579;49.488;8.226;2022-07-04T14:38:31;2.78;;;1.30;;
18893;SDS011;9579;49.488;8.226;2022-07-04T14:41:19;1.60;;;1.50;;
18893;SDS011;9579;49.488;8.226;2022-07-04T14:44:13;1.73;;;1.25;;
18893;SDS011;9579;49.488;8.226;2022-07-04T14:47:02;2.00;;;1.40;;
18893;SDS011;9579;49.488;8.226;2022-07-04T14:49:49;2.35;;;1.33;;
18893;SDS011;9579;49.488;8.226;2022-07-04T14:52:36;3.17;;;1.45;;
18893;SDS011;9579;49.488;8.226;2022-07-04T14:55:23;2.55;;;1.30;;
18893;SDS011;9579;49.488;8.226;2022-07-04T14:58:12;1.60;;;1.38;;
18893;SDS011;9579;49.488;8.226;2022-07-04T15:00:59;1.50;;;1.40;;
18893;SDS011;9579;49.488;8.226;2022-07-04T15:03:46;1.38;;;1.27;;
18893;SDS011;9579;49.488;8.226;2022-07-04T15:06:33;2.78;;;1.45;;
18893;SDS011;9579;49.488;8.226;2022-07-04T15:09:24;1.65;;;1.20;;
18893;SDS011;9579;49.488;8.226;2022-07-04T15:12:12;1.40;;;1.30;;
18893;SDS011;9579;49.488;8.226;2022-07-04T15:15:00;1.40;;;1.30;;
18893;SDS011;9579;49.488;8.226;2022-07-04T15:17:48;1.38;;;1.27;;
18893;SDS011;9579;49.488;8.226;2022-07-04T15:20:35;1.48;;;1.20;;
18893;SDS011;9579;49.488;8.226;2022-07-04T15:23:41;1.55;;;1.40;;
18893;SDS011;9579;49.488;8.226;2022-07-04T15:26:50;1.60;;;1.40;;
18893;SDS011;9579;49.488;8.226;2022-07-04T15:29:44;1.45;;;1.20;;
18893;SDS011;9579;49.488;8.226;2022-07-04T15:32:32;1.20;;;1.10;;
18893;SDS011;9579;49.488;8.226;2022-07-04T15:35:19;3.10;;;1.20;;
18893;SDS011;9579;49.488;8.226;2022-07-04T15:38:06;1.20;;;1.10;;
18893;SDS011;9579;49.488;8.226;2022-07-04T15:40:54;2.35;;;1.17;;
18893;SDS011;9579;49.488;8.226;2022-07-04T15:43:41;1.52;;;1.30;;
18893;SDS011;9579;49.488;8.226;2022-07-04T15:46:28;1.30;;;1.20;;
18893;SDS011;9579;49.488;8.226;2022-07-04T15:49:17;1.40;;;1.30;;
18893;SDS011;9579;49.488;8.226;2022-07-04T15:52:04;1.17;;;1.10;;
18893;SDS011;9579;49.488;8.226;2022-07-04T15:54:57;2.63;;;1.20;;
18893;SDS011;9579;49.488;8.226;2022-07-04T15:57:44;1.48;;;1.10;;
18893;SDS011;9579;49.488;8.226;2022-07-04T16:00:31;1.10;;;1.10;;
18893;SDS011;9579;49.488;8.226;2022-07-04T16:03:18;1.40;;;1.30;;
18893;SDS011;9579;49.488;8.226;2022-07-04T16:06:07;1.50;;;1.20;;
18893;SDS011;9579;49.488;8.226;2022-07-04T16:08:54;1.20;;;1.10;;
18893;SDS011;9579;49.488;8.226;2022-07-04T16:11:41;1.58;;;1.30;;
18893;SDS011;9579;49.488;8.226;2022-07-04T16:14:28;1.75;;;1.15;;
18893;SDS011;9579;49.488;8.226;2022-07-04T16:17:15;1.23;;;1.02;;
18893;SDS011;9579;49.488;8.226;2022-07-04T16:20:02;1.40;;;1.10;;
18893;SDS011;9579;49.488;8.226;2022-07-04T16:22:54;3.25;;;1.20;;
18893;SDS011;9579;49.488;8.226;2022-07-04T16:25:45;2.08;;;1.13;;
18893;SDS011;9579;49.488;8.226;2022-07-04T16:28:32;1.20;;;1.10;;
18893;SDS011;9579;49.488;8.226;2022-07-04T16:31:19;1.20;;;1.10;;
18893;SDS011;9579;49.488;8.226;2022-07-04T16:34:06;1.33;;;1.20;;
18893;SDS011;9579;49.488;8.226;2022-07-04T16:36:53;1.25;;;1.15;;
18893;SDS011;9579;49.488;8.226;2022-07-04T16:39:42;1.33;;;1.23;;
18893;SDS011;9579;49.488;8.226;2022-07-04T16:42:29;1.30;;;1.20;;
18893;SDS011;9579;49.488;8.226;2022-07-04T16:45:16;1.30;;;1.20;;
18893;SDS011;9579;49.488;8.226;2022-07-04T16:48:03;1.20;;;1.10;;
18893;SDS011;9579;49.488;8.226;2022-07-04T16:50:51;1.17;;;1.10;;
18893;SDS011;9579;49.488;8.226;2022-07-04T16:53:39;2.33;;;1.27;;
18893;SDS011;9579;49.488;8.226;2022-07-04T16:56:33;1.48;;;1.20;;
18893;SDS011;9579;49.488;8.226;2022-07-04T16:59:20;2.25;;;1.20;;
18893;SDS011;9579;49.488;8.226;2022-07-04T17:02:07;2.80;;;1.30;;
18893;SDS011;9579;49.488;8.226;2022-07-04T17:04:54;1.05;;;1.05;;
18893;SDS011;9579;49.488;8.226;2022-07-04T17:07:41;1.20;;;1.15;;
18893;SDS011;9579;49.488;8.226;2022-07-04T17:10:29;1.17;;;1.13;;
18893;SDS011;9579;49.488;8.226;2022-07-04T17:13:17;1.42;;;1.10;;
18893;SDS011;9579;49.488;8.226;2022-07-04T17:16:04;1.83;;;1.10;;
18893;SDS011;9579;49.488;8.226;2022-07-04T17:18:51;1.40;;;1.30;;
18893;SDS011;9579;49.488;8.226;2022-07-04T17:21:39;1.70;;;1.20;;
18893;SDS011;9579;49.488;8.226;2022-07-04T17:24:26;1.85;;;1.20;;
18893;SDS011;9579;49.488;8.226;2022-07-04T17:27:13;1.83;;;1.23;;
18893;SDS011;9579;49.488;8.226;2022-07-04T17:30:01;2.10;;;1.30;;
18893;SDS011;9579;49.488;8.226;2022-07-04T17:32:49;3.58;;;1.30;;
18893;SDS011;9579;49.488;8.226;2022-07-04T17:35:37;3.25;;;1.30;;
18893;SDS011;9579;49.488;8.226;2022-07-04T17:38:25;2.45;;;1.30;;
18893;SDS011;9579;49.488;8.226;2022-07-04T17:41:12;1.88;;;1.23;;
18893;SDS011;9579;49.488;8.226;2022-07-04T17:44:17;1.20;;;1.10;;
18893;SDS011;9579;49.488;8.226;2022-07-04T17:47:08;1.52;;;1.40;;
18893;SDS011;9579;49.488;8.226;2022-07-04T17:49:55;1.40;;;1.30;;
18893;SDS011;9579;49.488;8.226;2022-07-04T17:52:42;1.75;;;1.35;;
18893;SDS011;9579;49.488;8.226;2022-07-04T17:55:29;1.42;;;1.05;;
18893;SDS011;9579;49.488;8.226;2022-07-04T17:58:16;1.92;;;1.40;;
18893;SDS011;9579;49.488;8.226;2022-07-04T18:01:03;1.27;;;1.17;;
18893;SDS011;9579;49.488;8.226;2022-07-04T18:03:52;1.27;;;1.17;;
18893;SDS011;9579;49.488;8.226;2022-07-04T18:06:40;2.45;;;1.30;;
18893;SDS011;9579;49.488;8.226;2022-07-04T18:09:27;3.35;;;1.25;;
18893;SDS011;9579;49.488;8.226;2022-07-04T18:12:14;1.60;;;1.50;;
18893;SDS011;9579;49.488;8.226;2022-07-04T18:15:01;1.30;;;1.20;;
18893;SDS011;9579;49.488;8.226;2022-07-04T18:17:49;2.22;;;1.20;;
18893;SDS011;9579;49.488;8.226;2022-07-04T18:20:37;3.03;;;1.40;;
18893;SDS011;9579;49.488;8.226;2022-07-04T18:23:24;2.88;;;1.30;;
18893;SDS011;9579;49.488;8.226;2022-07-04T18:26:11;2.00;;;1.17;;
18893;SDS011;9579;49.488;8.226;2022-07-04T18:28:59;2.95;;;1.30;;
18893;SDS011;9579;49.488;8.226;2022-07-04T18:31:49;2.33;;;1.38;;
18893;SDS011;9579;49.488;8.226;2022-07-04T18:34:37;1.30;;;1.20;;
18893;SDS011;9579;49.488;8.226;2022-07-04T18:37:25;1.58;;;1.20;;
18893;SDS011;9579;49.488;8.226;2022-07-04T18:40:12;1.52;;;1.10;;
18893;SDS011;9579;49.488;8.226;2022-07-04T18:43:16;1.45;;;1.23;;
18893;SDS011;9579;49.488;8.226;2022-07-04T18:46:12;1.27;;;1.10;;
18893;SDS011;9579;49.488;8.226;2022-07-04T18:49:00;1.48;;;1.10;;
18893;SDS011;9579;49.488;8.226;2022-07-04T18:51:47;1.52;;;1.42;;
18893;SDS011;9579;49.488;8.226;2022-07-04T18:54:35;1.30;;;1.20;;
18893;SDS011;9579;49.488;8.226;2022-07-04T18:57:26;1.60;;;1.15;;
18893;SDS011;9579;49.488;8.226;2022-07-04T19:00:13;2.22;;;1.20;;
18893;SDS011;9579;49.488;8.226;2022-07-04T19:03:00;1.60;;;1.20;;
18893;SDS011;9579;49.488;8.226;2022-07-04T19:05:48;2.58;;;1.20;;
18893;SDS011;9579;49.488;8.226;2022-07-04T19:08:35;2.10;;;1.27;;
18893;SDS011;9579;49.488;8.226;2022-07-04T19:11:23;2.33;;;1.30;;
18893;SDS011;9579;49.488;8.226;2022-07-04T19:14:11;1.42;;;1.33;;
18893;SDS011;9579;49.488;8.226;2022-07-04T19:16:58;1.60;;;1.13;;
18893;SDS011;9579;49.488;8.226;2022-07-04T19:19:45;2.00;;;1.20;;
18893;SDS011;9579;49.488;8.226;2022-07-04T19:22:32;1.58;;;1.10;;
18893;SDS011;9579;49.488;8.226;2022-07-04T19:25:20;1.35;;;1.10;;
18893;SDS011;9579;49.488;8.226;2022-07-04T19:28:09;1.90;;;1.30;;
18893;SDS011;9579;49.488;8.226;2022-07-04T19:30:56;1.63;;;1.10;;
18893;SDS011;9579;49.488;8.226;2022-07-04T19:33:44;2.15;;;1.15;;
18893;SDS011;9579;49.488;8.226;2022-07-04T19:36:31;2.45;;;1.23;;
18893;SDS011;9579;49.488;8.226;2022-07-04T19:39:19;1.65;;;1.10;;
18893;SDS011;9579;49.488;8.226;2022-07-04T19:42:06;2.60;;;1.30;;
18893;SDS011;9579;49.488;8.226;2022-07-04T19:44:55;1.20;;;1.10;;
18893;SDS011;9579;49.488;8.226;2022-07-04T19:47:42;1.40;;;1.30;;
18893;SDS011;9579;49.488;8.226;2022-07-04T19:53:24;1.55;;;1.17;;
18893;SDS011;9579;49.488;8.226;2022-07-04T19:56:11;3.08;;;1.40;;
18893;SDS011;9579;49.488;8.226;2022-07-04T19:58:58;2.55;;;1.23;;
18893;SDS011;9579;49.488;8.226;2022-07-04T20:01:46;5.18;;;1.30;;
18893;SDS011;9579;49.488;8.226;2022-07-04T20:04:40;1.48;;;1.23;;
18893;SDS011;9579;49.488;8.226;2022-07-04T20:07:28;1.95;;;1.20;;
18893;SDS011;9579;49.488;8.226;2022-07-04T20:10:15;2.63;;;1.40;;
18893;SDS011;9579;49.488;8.226;2022-07-04T20:13:02;3.00;;;1.52;;
18893;SDS011;9579;49.488;8.226;2022-07-04T20:15:49;1.30;;;1.13;;
18893;SDS011;9579;49.488;8.226;2022-07-04T20:18:39;2.42;;;1.10;;
18893;SDS011;9579;49.488;8.226;2022-07-04T20:21:26;1.25;;;1.13;;
18893;SDS011;9579;49.488;8.226;2022-07-04T20:24:13;3.10;;;1.20;;
18893;SDS011;9579;49.488;8.226;2022-07-04T20:27:01;1.60;;;1.17;;
18893;SDS011;9579;49.488;8.226;2022-07-04T20:29:48;2.53;;;1.45;;
18893;SDS011;9579;49.488;8.226;2022-07-04T20:32:36;1.52;;;1.30;;
18893;SDS011;9579;49.488;8.226;2022-07-04T20:35:24;1.50;;;1.30;;
18893;SDS011;9579;49.488;8.226;2022-07-04T20:38:14;2.08;;;1.42;;
18893;SDS011;9579;49.488;8.226;2022-07-04T20:41:01;2.85;;;1.42;;
18893;SDS011;9579;49.488;8.226;2022-07-04T20:43:49;2.13;;;1.52;;
18893;SDS011;9579;49.488;8.226;2022-07-04T20:46:36;2.53;;;1.25;;
18893;SDS011;9579;49.488;8.226;2022-07-04T20:49:23;4.57;;;1.50;;
18893;SDS011;9579;49.488;8.226;2022-07-04T20:52:11;3.28;;;2.30;;
18893;SDS011;9579;49.488;8.226;2022-07-04T20:55:00;2.83;;;2.20;;
18893;SDS011;9579;49.488;8.226;2022-07-04T20:57:48;2.00;;;1.60;;
18893;SDS011;9579;49.488;8.226;2022-07-04T21:00:36;2.47;;;2.10;;
18893;SDS011;9579;49.488;8.226;2022-07-04T21:03:23;4.35;;;1.70;;
18893;SDS011;9579;49.488;8.226;2022-07-04T21:06:10;1.55;;;1.45;;
18893;SDS011;9579;49.488;8.226;2022-07-04T21:08:59;2.50;;;1.33;;
18893;SDS011;9579;49.488;8.226;2022-07-04T21:11:46;1.63;;;1.30;;
18893;SDS011;9579;49.488;8.226;2022-07-04T21:14:33;1.40;;;1.30;;
18893;SDS011;9579;49.488;8.226;2022-07-04T21:17:20;1.40;;;1.30;;
18893;SDS011;9579;49.488;8.226;2022-07-04T21:20:07;1.33;;;1.23;;
18893;SDS011;9579;49.488;8.226;2022-07-04T21:22:55;1.88;;;1.30;;
18893;SDS011;9579;49.488;8.226;2022-07-04T21:25:43;1.50;;;1.40;;
18893;SDS011;9579;49.488;8.226;2022-07-04T21:28:30;4.03;;;1.23;;
18893;SDS011;9579;49.488;8.226;2022-07-04T21:31:17;1.70;;;1.20;;
18893;SDS011;9579;49.488;8.226;2022-07-04T21:34:04;1.65;;;1.20;;
18893;SDS011;9579;49.488;8.226;2022-07-04T21:36:51;1.80;;;1.30;;
18893;SDS011;9579;49.488;8.226;2022-07-04T21:39:39;1.45;;;1.10;;
18893;SDS011;9579;49.488;8.226;2022-07-04T21:42:27;2.60;;;1.20;;
18893;SDS011;9579;49.488;8.226;2022-07-04T21:45:14;2.85;;;1.27;;
18893;SDS011;9579;49.488;8.226;2022-07-04T21:48:01;1.50;;;1.40;;
18893;SDS011;9579;49.488;8.226;2022-07-04T21:50:49;1.40;;;1.25;;
18893;SDS011;9579;49.488;8.226;2022-07-04T21:53:36;1.00;;;1.00;;
18893;SDS011;9579;49.488;8.226;2022-07-04T21:56:23;2.17;;;1.13;;
18893;SDS011;9579;49.488;8.226;2022-07-04T21:59:11;2.47;;;1.15;;
18893;SDS011;9579;49.488;8.226;2022-07-04T22:01:58;1.20;;;1.10;;
18893;SDS011;9579;49.488;8.226;2022-07-04T22:04:45;1.63;;;1.40;;
18893;SDS011;9579;49.488;8.226;2022-07-04T22:07:32;3.05;;;1.40;;
18893;SDS011;9579;49.488;8.226;2022-07-04T22:10:19;2.30;;;1.30;;
18893;SDS011;9579;49.488;8.226;2022-07-04T22:13:06;1.40;;;1.30;;
18893;SDS011;9579;49.488;8.226;2022-07-04T22:15:55;1.92;;;1.20;;
18893;SDS011;9579;49.488;8.226;2022-07-04T22:18:43;1.20;;;1.10;;
18893;SDS011;9579;49.488;8.226;2022-07-04T22:21:30;1.50;;;1.20;;
18893;SDS011;9579;49.488;8.226;2022-07-04T22:24:17;1.40;;;1.30;;